Time;durP1;ratioP1;P1;durP2;ratioP2;P2;SDS_P1;SDS_P2;PMS_P1;PMS_P2;Temp;Humidity;BMP_temperature;BMP_pressure;BME280_temperature;BME280_humidity;BME280_pressure;Samples;Min_cycle;Max_cycle;Signal;HPM_P1;HPM_P2
2022/05/10 00:01:42;;;;;;;14.55;6.80;;;12.60;99.90;;;;;;5054073;28;20052;-35
2022/05/10 00:04:10;;;;;;;13.80;7.45;;;12.60;99.90;;;;;;5061252;28;20045;-35
2022/05/10 00:06:49;;;;;;;14.10;7.50;;;12.50;99.90;;;;;;5042564;28;20043;-35
2022/05/10 00:09:19;;;;;;;15.50;7.60;;;12.50;99.90;;;;;;5057587;28;20128;-35
2022/05/10 00:11:45;;;;;;;16.25;7.43;;;12.50;99.90;;;;;;5067706;28;20051;-35
2022/05/10 00:14:11;;;;;;;16.45;7.13;;;12.50;99.90;;;;;;5068798;28;20078;-35
2022/05/10 00:16:40;;;;;;;12.90;7.30;;;12.50;99.90;;;;;;5015550;28;20058;-35
2022/05/10 00:19:06;;;;;;;12.75;7.50;;;12.50;99.90;;;;;;5067014;28;20475;-35
2022/05/10 00:21:32;;;;;;;13.50;6.95;;;12.40;99.90;;;;;;5069252;28;20139;-35
2022/05/10 00:23:57;;;;;;;15.27;7.00;;;12.40;99.90;;;;;;5050879;28;20595;-35
2022/05/10 00:26:23;;;;;;;17.27;7.50;;;12.40;99.90;;;;;;5052969;28;20045;-36
2022/05/10 00:28:49;;;;;;;14.05;7.05;;;12.40;99.90;;;;;;5064165;28;20091;-35
2022/05/10 00:31:17;;;;;;;17.10;7.97;;;12.30;99.90;;;;;;5062409;28;20136;-35
2022/05/10 00:33:43;;;;;;;20.52;7.75;;;12.40;99.90;;;;;;5048931;28;20504;-35
2022/05/10 00:36:12;;;;;;;11.13;6.70;;;12.30;99.90;;;;;;5063212;28;20083;-35
2022/05/10 00:38:39;;;;;;;16.02;7.22;;;12.20;99.90;;;;;;5045464;28;20053;-35
2022/05/10 00:41:17;;;;;;;15.75;6.88;;;12.30;99.90;;;;;;5069338;28;20052;-35
2022/05/10 00:43:49;;;;;;;13.38;6.78;;;12.20;99.90;;;;;;5061893;28;20442;-35
2022/05/10 00:46:24;;;;;;;16.45;7.85;;;12.10;99.90;;;;;;5049109;28;20045;-35
2022/05/10 00:49:16;;;;;;;17.65;8.68;;;12.10;99.90;;;;;;5059605;28;21462;-35
2022/05/10 00:51:54;;;;;;;16.63;8.13;;;12.10;99.90;;;;;;5068486;28;20055;-35
2022/05/10 00:54:44;;;;;;;14.27;8.15;;;12.10;99.90;;;;;;5067977;28;20098;-35
2022/05/10 00:57:24;;;;;;;13.13;7.60;;;12.10;99.90;;;;;;5040244;28;20658;-35
2022/05/10 01:00:10;;;;;;;13.13;8.20;;;12.10;99.90;;;;;;5070503;28;20040;-35
2022/05/10 01:02:47;;;;;;;19.40;8.40;;;12.00;99.90;;;;;;5067424;28;20630;-35
2022/05/10 01:05:36;;;;;;;17.40;8.05;;;12.00;99.90;;;;;;5053199;28;20048;-35
2022/05/10 01:08:31;;;;;;;17.00;8.32;;;12.00;99.90;;;;;;5019295;28;20037;-35
2022/05/10 01:11:18;;;;;;;17.00;9.35;;;12.00;99.90;;;;;;5044687;28;20048;-35
2022/05/10 01:13:53;;;;;;;18.30;8.98;;;12.00;99.90;;;;;;5062341;28;20656;-35
2022/05/10 01:16:22;;;;;;;19.60;9.35;;;12.10;99.90;;;;;;5041428;28;20063;-35
2022/05/10 01:18:48;;;;;;;15.57;9.02;;;12.00;99.90;;;;;;5054658;28;20055;-35
2022/05/10 01:21:29;;;;;;;16.95;8.90;;;12.10;99.90;;;;;;5041491;28;20124;-35
2022/05/10 01:24:13;;;;;;;18.63;9.00;;;12.10;99.90;;;;;;5066982;28;20044;-35
2022/05/10 01:26:53;;;;;;;18.73;8.68;;;12.10;99.90;;;;;;5054703;28;20109;-35
2022/05/10 01:29:26;;;;;;;16.15;8.73;;;12.10;99.90;;;;;;5062430;28;20052;-35
2022/05/10 01:34:43;;;;;;;14.85;8.57;;;12.10;99.90;;;;;;5056395;28;20168;-35
2022/05/10 01:37:15;;;;;;;15.93;8.57;;;12.10;99.90;;;;;;5052563;28;20392;-35
2022/05/10 01:39:57;;;;;;;18.75;8.70;;;12.10;99.90;;;;;;5068287;28;20048;-35
2022/05/10 01:42:30;;;;;;;;;;;12.10;99.90;;;;;;5057260;28;21051;-35
2022/05/10 01:45:09;;;;;;;18.75;8.88;;;12.00;99.90;;;;;;5049331;28;20013;-35
2022/05/10 01:48:00;;;;;;;18.63;8.32;;;12.10;99.90;;;;;;5031979;28;20052;-36
2022/05/10 01:50:29;;;;;;;21.45;8.70;;;12.10;99.90;;;;;;5060713;28;20389;-35
2022/05/10 01:53:18;;;;;;;15.70;8.82;;;12.10;99.90;;;;;;5059813;28;20044;-35
2022/05/10 01:55:48;;;;;;;18.83;8.35;;;12.10;99.90;;;;;;5062415;28;20037;-35
2022/05/10 01:58:17;;;;;;;17.88;8.90;;;12.10;99.90;;;;;;5045289;28;20052;-35
2022/05/10 02:00:48;;;;;;;17.33;8.50;;;12.10;99.90;;;;;;5052364;28;20044;-35
2022/05/10 02:03:42;;;;;;;18.38;7.95;;;12.10;99.90;;;;;;5065977;28;20044;-35
2022/05/10 02:06:17;;;;;;;18.83;8.60;;;12.10;99.90;;;;;;5052564;28;20454;-35
2022/05/10 02:09:10;;;;;;;15.82;8.00;;;12.10;99.90;;;;;;5031189;28;20545;-35
2022/05/10 02:11:46;;;;;;;15.68;8.50;;;12.10;99.90;;;;;;5068322;28;20044;-35
2022/05/10 02:14:20;;;;;;;14.85;7.78;;;12.10;99.90;;;;;;5043887;28;20110;-35
2022/05/10 02:16:55;;;;;;;14.25;7.55;;;12.10;99.90;;;;;;5039870;28;20044;-35
2022/05/10 02:19:36;;;;;;;16.25;8.02;;;12.10;99.90;;;;;;5064664;28;20450;-35
2022/05/10 02:22:12;;;;;;;14.18;7.68;;;12.10;99.90;;;;;;5048129;28;20123;-35
2022/05/10 02:24:45;;;;;;;13.48;7.78;;;12.10;99.90;;;;;;5063108;28;20048;-35
2022/05/10 02:27:17;;;;;;;18.73;8.15;;;12.10;99.90;;;;;;5047446;28;20125;-35
2022/05/10 02:29:48;;;;;;;12.85;7.50;;;12.10;99.90;;;;;;5059284;28;20049;-35
2022/05/10 02:35:06;;;;;;;18.88;8.52;;;12.10;99.90;;;;;;5066197;28;20458;-35
2022/05/10 02:37:32;;;;;;;14.57;7.85;;;12.10;99.90;;;;;;5014319;28;20052;-37
2022/05/10 02:39:59;;;;;;;17.85;7.95;;;12.10;99.90;;;;;;5038253;28;20052;-35
2022/05/10 02:42:27;;;;;;;12.15;7.07;;;12.10;99.90;;;;;;5060347;28;20045;-35
2022/05/10 02:44:55;;;;;;;14.18;7.82;;;12.10;99.90;;;;;;5046643;28;20054;-35
2022/05/10 02:47:28;;;;;;;17.13;8.10;;;12.00;99.90;;;;;;5050295;28;20123;-35
2022/05/10 02:49:54;;;;;;;19.58;7.40;;;12.00;99.90;;;;;;5064792;28;20415;-35
2022/05/10 02:52:20;;;;;;;18.45;8.25;;;12.10;99.90;;;;;;5066137;28;20048;-35
2022/05/10 02:54:45;;;;;;;16.67;7.55;;;12.10;99.90;;;;;;5067667;28;20067;-35
2022/05/10 02:57:11;;;;;;;17.40;7.82;;;12.00;99.90;;;;;;5039969;28;20380;-35
2022/05/10 02:59:38;;;;;;;16.90;7.80;;;12.00;99.90;;;;;;5068073;28;20080;-35
2022/05/10 03:02:20;;;;;;;16.88;8.27;;;11.90;99.90;;;;;;5062916;28;20048;-36
2022/05/10 03:04:56;;;;;;;17.88;8.02;;;11.90;99.90;;;;;;5054164;28;20056;-35
2022/05/10 03:07:22;;;;;;;17.55;7.85;;;12.00;99.90;;;;;;5053082;28;20056;-35
2022/05/10 03:09:48;;;;;;;14.80;7.97;;;12.00;99.90;;;;;;5069096;28;20507;-35
2022/05/10 03:12:14;;;;;;;15.73;7.95;;;12.00;99.90;;;;;;5070114;28;20044;-35
2022/05/10 03:14:40;;;;;;;18.52;8.20;;;12.00;99.90;;;;;;5062083;28;20052;-35
2022/05/10 03:17:05;;;;;;;14.80;8.07;;;12.00;99.90;;;;;;5045382;28;20055;-36
2022/05/10 03:19:32;;;;;;;15.63;8.02;;;12.00;99.90;;;;;;5063186;28;20045;-35
2022/05/10 03:21:58;;;;;;;20.23;8.02;;;12.00;99.90;;;;;;5068642;28;20059;-35
2022/05/10 03:24:24;;;;;;;13.80;7.70;;;12.00;99.90;;;;;;5069300;28;20040;-35
2022/05/10 03:26:52;;;;;;;14.30;7.88;;;12.10;99.90;;;;;;5055580;28;20048;-35
2022/05/10 03:29:18;;;;;;;17.35;7.88;;;12.10;99.90;;;;;;5067811;28;20045;-35
2022/05/10 03:31:45;;;;;;;17.55;8.13;;;12.10;99.90;;;;;;5061540;28;20487;-35
2022/05/10 03:36:55;;;;;;;17.05;8.63;;;12.10;99.90;;;;;;5055068;28;20106;-35
2022/05/10 03:39:20;;;;;;;16.15;8.80;;;12.10;99.90;;;;;;5069699;28;20049;-35
2022/05/10 03:41:46;;;;;;;15.63;8.60;;;12.00;99.90;;;;;;5065922;28;20098;-35
2022/05/10 03:44:12;;;;;;;17.45;8.48;;;12.20;99.90;;;;;;5053273;28;20044;-35
2022/05/10 03:46:38;;;;;;;13.30;8.70;;;12.20;99.90;;;;;;5035834;28;20055;-35
2022/05/10 03:49:04;;;;;;;15.18;8.93;;;12.20;99.90;;;;;;5065741;28;20036;-36
2022/05/10 03:51:30;;;;;;;17.42;9.20;;;12.20;99.90;;;;;;5048060;28;20061;-35
2022/05/10 03:53:55;;;;;;;20.80;9.23;;;12.20;99.90;;;;;;5064017;28;20041;-35
2022/05/10 03:56:21;;;;;;;16.98;8.85;;;12.20;99.90;;;;;;5040514;28;20041;-35
2022/05/10 03:58:47;;;;;;;19.35;9.32;;;12.20;99.90;;;;;;5062886;28;20075;-35
2022/05/10 04:01:12;;;;;;;20.73;9.63;;;12.20;99.90;;;;;;5068883;28;20072;-35
2022/05/10 04:03:38;;;;;;;20.00;9.43;;;12.30;99.90;;;;;;5041096;28;20106;-35
2022/05/10 04:06:04;;;;;;;20.23;9.68;;;12.30;99.90;;;;;;5058042;28;20036;-35
2022/05/10 04:08:30;;;;;;;19.90;9.57;;;12.30;99.90;;;;;;5046203;28;20098;-35
2022/05/10 04:11:02;;;;;;;15.05;10.40;;;12.30;99.90;;;;;;5062407;28;20177;-35
2022/05/10 04:13:27;;;;;;;;;;;12.40;99.90;;;;;;5065402;28;20423;-35
2022/05/10 04:15:53;;;;;;;18.55;9.82;;;12.30;99.90;;;;;;5055385;28;19928;-35
2022/05/10 04:18:19;;;;;;;18.73;10.73;;;12.40;99.90;;;;;;5034282;28;20054;-35
2022/05/10 04:20:44;;;;;;;21.75;10.57;;;12.30;99.90;;;;;;5062769;28;20412;-35
2022/05/10 04:23:10;;;;;;;20.50;10.90;;;12.40;99.90;;;;;;5062947;28;20052;-35
2022/05/10 04:25:36;;;;;;;22.58;11.10;;;12.40;99.90;;;;;;5062295;28;20132;-35
2022/05/10 04:28:04;;;;;;;17.52;11.27;;;12.30;99.90;;;;;;5053277;28;20068;-35
2022/05/10 04:30:30;;;;;;;24.38;12.70;;;12.40;99.90;;;;;;5053992;28;20068;-35
2022/05/10 04:32:55;;;;;;;24.85;13.90;;;12.50;99.90;;;;;;5047478;28;20061;-35
2022/05/10 04:35:21;;;;;;;22.63;12.73;;;12.50;99.90;;;;;;5053510;28;20049;-35
2022/05/10 04:37:47;;;;;;;19.67;11.85;;;12.50;99.90;;;;;;5053732;28;20053;-36
2022/05/10 04:42:57;;;;;;;23.95;12.35;;;12.60;99.90;;;;;;5057516;28;20060;-35
2022/05/10 04:45:22;;;;;;;22.58;11.00;;;12.60;99.90;;;;;;5062399;28;20404;-35
2022/05/10 04:47:48;;;;;;;20.90;10.20;;;12.70;99.90;;;;;;5042276;28;20043;-35
2022/05/10 04:50:14;;;;;;;19.88;11.25;;;12.70;99.90;;;;;;5062472;28;20203;-35
2022/05/10 04:52:40;;;;;;;19.58;11.30;;;12.70;99.90;;;;;;5050345;28;20051;-35
2022/05/10 04:55:09;;;;;;;16.70;11.73;;;12.80;99.90;;;;;;5067202;28;20179;-35
2022/05/10 04:57:36;;;;;;;18.90;10.35;;;12.90;99.90;;;;;;5050012;28;20036;-36
2022/05/10 05:00:04;;;;;;;16.00;10.77;;;12.90;99.90;;;;;;5070857;28;20075;-35
2022/05/10 05:02:29;;;;;;;20.73;10.77;;;13.00;99.90;;;;;;5040897;28;20037;-35
2022/05/10 05:04:55;;;;;;;22.70;11.40;;;13.10;99.90;;;;;;5061169;28;20083;-35
2022/05/10 05:07:21;;;;;;;19.60;10.68;;;13.10;99.90;;;;;;5047443;28;20079;-35
2022/05/10 05:09:46;;;;;;;22.95;10.40;;;13.10;99.90;;;;;;5065711;28;20751;-35
2022/05/10 05:12:12;;;;;;;20.42;11.40;;;13.20;99.90;;;;;;5047583;28;20052;-36
2022/05/10 05:14:38;;;;;;;20.60;11.73;;;13.20;99.90;;;;;;5053284;28;20047;-35
2022/05/10 05:17:05;;;;;;;20.60;12.10;;;13.30;99.90;;;;;;5034462;28;20037;-38
2022/05/10 05:19:30;;;;;;;25.85;13.00;;;13.30;99.90;;;;;;5066074;28;20067;-35
2022/05/10 05:21:56;;;;;;;19.95;11.60;;;13.30;99.90;;;;;;5068355;28;20480;-35
2022/05/10 05:24:22;;;;;;;19.95;11.23;;;13.40;99.90;;;;;;5050585;28;20530;-35
2022/05/10 05:26:48;;;;;;;23.17;11.30;;;13.40;99.90;;;;;;5045564;28;20399;-36
2022/05/10 05:29:14;;;;;;;19.60;12.57;;;13.50;99.90;;;;;;5056859;28;20110;-35
2022/05/10 05:31:40;;;;;;;22.15;13.20;;;13.40;99.90;;;;;;5039484;28;20052;-35
2022/05/10 05:34:06;;;;;;;19.27;11.60;;;13.60;99.90;;;;;;5064231;28;20047;-35
2022/05/10 05:36:31;;;;;;;19.33;12.63;;;13.60;99.90;;;;;;5046675;28;20048;-36
2022/05/10 05:38:57;;;;;;;21.33;11.82;;;13.60;99.90;;;;;;5053734;28;20037;-36
2022/05/10 05:41:23;;;;;;;18.33;11.10;;;13.60;99.90;;;;;;5048306;28;20041;-35
2022/05/10 05:43:49;;;;;;;20.02;10.85;;;13.60;99.90;;;;;;5053495;28;20431;-36
2022/05/10 05:46:15;;;;;;;19.75;11.65;;;13.70;99.90;;;;;;5039583;28;20530;-36
2022/05/10 05:48:41;;;;;;;20.88;12.35;;;13.80;99.90;;;;;;5038774;28;20110;-35
2022/05/10 05:51:07;;;;;;;18.08;11.35;;;13.80;99.90;;;;;;5049991;28;20500;-36
2022/05/10 05:53:32;;;;;;;24.73;10.88;;;13.90;99.90;;;;;;5046617;28;20049;-35
2022/05/10 05:56:10;;;;;;;20.08;10.73;;;13.90;99.90;;;;;;5047841;28;20108;-36
2022/05/10 05:58:38;;;;;;;21.35;11.30;;;13.90;99.90;;;;;;5043117;28;20048;-35
2022/05/10 06:01:15;;;;;;;17.17;10.90;;;14.00;99.90;;;;;;5049465;28;20526;-36
2022/05/10 06:03:44;;;;;;;19.15;11.00;;;14.20;99.90;;;;;;5049541;28;20056;-36
2022/05/10 06:06:11;;;;;;;17.73;10.52;;;14.20;99.90;;;;;;5048338;28;20660;-36
2022/05/10 06:08:37;;;;;;;17.83;10.60;;;14.20;99.90;;;;;;5053639;28;20576;-36
2022/05/10 06:11:02;;;;;;;21.52;12.52;;;14.30;99.90;;;;;;5064926;28;20051;-36
2022/05/10 06:13:28;;;;;;;21.08;12.18;;;14.40;99.90;;;;;;5057482;28;20128;-35
2022/05/10 06:15:54;;;;;;;21.80;11.85;;;14.50;99.90;;;;;;5067343;28;20040;-36
2022/05/10 06:18:20;;;;;;;24.25;14.20;;;14.60;99.90;;;;;;5044446;28;20052;-36
2022/05/10 06:20:45;;;;;;;15.60;10.52;;;14.70;99.90;;;;;;5067657;28;20170;-36
2022/05/10 06:23:12;;;;;;;20.58;12.93;;;14.80;99.90;;;;;;5058902;28;20136;-36
2022/05/10 06:25:38;;;;;;;19.48;12.38;;;14.90;99.90;;;;;;5048910;28;20572;-36
2022/05/10 06:28:04;;;;;;;20.50;13.13;;;15.00;99.90;;;;;;5031316;28;20053;-36
2022/05/10 06:30:31;;;;;;;18.55;10.85;;;15.20;99.90;;;;;;5049096;28;20103;-36
2022/05/10 06:32:59;;;;;;;15.98;11.00;;;15.30;99.90;;;;;;5047759;28;20178;-36
2022/05/10 06:35:26;;;;;;;17.90;11.40;;;15.40;99.90;;;;;;5047723;28;20127;-36
2022/05/10 06:40:36;;;;;;;18.60;10.93;;;15.70;99.90;;;;;;5064248;28;20640;-36
2022/05/10 06:43:02;;;;;;;18.20;10.32;;;15.90;99.90;;;;;;5049978;28;20036;-36
2022/05/10 06:45:28;;;;;;;16.08;9.77;;;16.10;99.90;;;;;;5066490;28;20060;-36
2022/05/10 06:47:54;;;;;;;16.10;10.25;;;16.20;99.90;;;;;;5052841;28;20072;-36
2022/05/10 06:50:22;;;;;;;17.20;8.90;;;16.30;99.90;;;;;;5066713;28;20041;-36
2022/05/10 06:52:54;;;;;;;10.68;7.65;;;16.40;99.90;;;;;;5064007;28;20045;-35
2022/05/10 06:55:22;;;;;;;10.27;7.43;;;16.60;99.90;;;;;;5065569;28;20044;-36
2022/05/10 06:57:48;;;;;;;11.23;7.95;;;16.70;99.90;;;;;;5048513;28;20040;-36
2022/05/10 07:00:14;;;;;;;13.15;7.90;;;16.80;99.90;;;;;;5067347;28;20682;-36
2022/05/10 07:02:40;;;;;;;10.68;7.32;;;16.90;99.90;;;;;;5067097;28;20048;-36
2022/05/10 07:05:08;;;;;;;12.93;7.65;;;17.00;99.90;;;;;;5056881;28;20094;-36
2022/05/10 07:07:34;;;;;;;10.80;7.45;;;17.10;99.90;;;;;;5044978;28;20041;-36
2022/05/10 07:09:59;;;;;;;16.42;7.95;;;17.20;99.90;;;;;;5039989;28;20048;-36
2022/05/10 07:12:25;;;;;;;13.32;7.45;;;17.30;99.90;;;;;;5053044;28;21812;-36
2022/05/10 07:14:51;;;;;;;10.98;6.80;;;17.40;99.90;;;;;;5049677;28;20078;-36
2022/05/10 07:17:16;;;;;;;12.80;7.82;;;17.40;99.90;;;;;;5032399;28;20057;-36
2022/05/10 07:19:42;;;;;;;12.20;6.15;;;17.60;99.90;;;;;;5055771;28;20083;-37
2022/05/10 07:22:08;;;;;;;12.05;7.00;;;17.60;99.90;;;;;;5045604;28;20068;-36
2022/05/10 07:24:34;;;;;;;11.75;7.35;;;17.80;99.90;;;;;;5053839;28;20040;-36
2022/05/10 07:26:59;;;;;;;14.45;6.75;;;17.90;99.90;;;;;;5030882;28;20041;-36
2022/05/10 07:29:25;;;;;;;15.05;7.57;;;18.00;99.90;;;;;;5046224;28;20049;-36
2022/05/10 07:31:53;;;;;;;12.75;7.20;;;18.10;99.90;;;;;;5046023;28;20055;-36
2022/05/10 07:34:19;;;;;;;13.70;7.07;;;18.20;99.90;;;;;;5047535;28;20060;-36
2022/05/10 07:36:44;;;;;;;11.18;7.28;;;18.30;99.90;;;;;;5037020;28;21564;-36
2022/05/10 07:39:14;;;;;;;18.05;7.07;;;18.40;99.90;;;;;;5035707;28;20056;-36
2022/05/10 07:41:41;;;;;;;11.73;7.68;;;18.50;99.90;;;;;;5045926;28;20048;-37
2022/05/10 07:44:08;;;;;;;11.70;6.10;;;18.60;99.90;;;;;;5048517;28;20051;-36
2022/05/10 07:46:33;;;;;;;12.57;6.38;;;18.70;99.90;;;;;;5033210;28;20040;-36
2022/05/10 07:48:59;;;;;;;18.02;6.50;;;18.80;99.90;;;;;;5044431;28;20047;-36
2022/05/10 07:51:25;;;;;;;15.52;6.00;;;18.80;99.90;;;;;;5429226;22;20058;-37
2022/05/10 07:53:51;;;;;;;12.38;6.45;;;18.90;99.90;;;;;;4947706;28;20039;-37
2022/05/10 07:56:17;;;;;;;11.82;6.10;;;18.90;99.90;;;;;;4933846;28;20061;-38
2022/05/10 07:58:43;;;;;;;13.00;5.85;;;19.00;99.90;;;;;;4938656;28;20085;-38
2022/05/10 08:01:09;;;;;;;13.02;6.05;;;19.00;99.90;;;;;;4951663;28;20165;-38
2022/05/10 08:03:35;;;;;;;11.10;6.22;;;19.00;99.90;;;;;;4945323;28;20395;-38
2022/05/10 08:06:01;;;;;;;13.73;6.50;;;19.10;99.90;;;;;;4951336;28;20054;-37
2022/05/10 08:08:29;;;;;;;10.05;5.88;;;19.10;99.90;;;;;;4927154;28;20514;-38
2022/05/10 08:10:56;;;;;;;11.80;6.00;;;19.10;99.90;;;;;;4939926;28;20398;-38
2022/05/10 08:13:26;;;;;;;11.70;5.20;;;19.20;99.90;;;;;;4936502;28;20498;-38
2022/05/10 08:15:54;;;;;;;9.20;5.25;;;19.20;99.90;;;;;;4943922;28;20534;-38
2022/05/10 08:18:21;;;;;;;10.73;5.20;;;19.30;99.90;;;;;;4926446;28;20050;-37
2022/05/10 08:20:48;;;;;;;12.40;5.55;;;19.30;99.90;;;;;;4949018;28;20412;-38
2022/05/10 08:23:18;;;;;;;11.52;5.05;;;19.40;99.90;;;;;;4940149;28;20047;-38
2022/05/10 08:25:44;;;;;;;13.82;5.65;;;19.40;99.90;;;;;;4941942;28;20569;-38
2022/05/10 08:28:13;;;;;;;11.93;4.90;;;19.50;99.90;;;;;;4923450;28;20194;-38
2022/05/10 08:30:46;;;;;;;8.70;4.45;;;19.50;99.90;;;;;;4939854;28;20058;-38
2022/05/10 08:33:23;;;;;;;10.85;4.97;;;19.60;99.90;;;;;;4938910;28;20059;-38
2022/05/10 08:35:51;;;;;;;10.32;5.20;;;19.70;99.90;;;;;;4942573;28;20600;-38
2022/05/10 08:38:17;;;;;;;11.20;5.60;;;19.80;99.90;;;;;;4924587;28;20062;-38
2022/05/10 08:40:52;;;;;;;11.07;5.43;;;19.90;99.90;;;;;;4941116;28;20075;-38
2022/05/10 08:43:24;;;;;;;10.32;4.97;;;20.00;99.90;;;;;;4937535;28;20191;-38
2022/05/10 08:45:50;;;;;;;11.25;4.22;;;20.00;99.90;;;;;;4940393;28;20180;-38
2022/05/10 08:48:15;;;;;;;7.38;4.68;;;20.10;99.90;;;;;;4922413;28;20067;-38
2022/05/10 08:50:46;;;;;;;10.52;4.88;;;20.10;99.90;;;;;;4940454;28;20063;-38
2022/05/10 08:53:12;;;;;;;9.10;4.43;;;20.20;99.90;;;;;;4937048;28;20326;-38
2022/05/10 08:55:43;;;;;;;9.75;4.43;;;20.30;99.90;;;;;;4940363;28;20294;-38
2022/05/10 08:58:31;;;;;;;9.73;4.17;;;20.30;99.90;;;;;;4919427;28;20593;-38
2022/05/10 09:01:00;;;;;;;7.18;3.92;;;20.30;99.90;;;;;;4942947;28;20055;-38
2022/05/10 09:03:57;;;;;;;9.50;3.53;;;20.40;99.90;;;;;;4936285;28;20046;-38
2022/05/10 09:06:36;;;;;;;9.25;3.65;;;20.40;99.90;;;;;;4929570;28;20062;-38
2022/05/10 09:09:43;;;;;;;10.60;3.67;;;20.70;99.90;;;;;;4937718;28;20054;-38
2022/05/10 09:12:20;;;;;;;14.25;3.88;;;20.60;99.90;;;;;;4960605;28;20061;-38
2022/05/10 09:15:01;;;;;;;6.13;3.63;;;20.70;99.90;;;;;;4943620;28;20051;-39
2022/05/10 09:17:36;;;;;;;8.05;3.50;;;20.70;99.90;;;;;;4925628;28;20039;-39
2022/05/10 09:20:04;;;;;;;8.40;3.60;;;20.70;99.90;;;;;;4942513;28;20137;-38
2022/05/10 09:23:11;;;;;;;9.05;3.88;;;20.80;99.90;;;;;;4941305;28;20412;-38
2022/05/10 09:25:41;;;;;;;8.15;3.50;;;20.80;99.90;;;;;;4926766;28;20071;-38
2022/05/10 09:28:38;;;;;;;12.02;3.70;;;20.90;99.90;;;;;;4904714;28;20051;-38
2022/05/10 09:36:55;;;;;;;9.55;3.70;;;21.20;99.90;;;;;;4924122;28;20744;-38
2022/05/10 09:39:35;;;;;;;6.75;3.30;;;21.20;99.90;;;;;;4939143;28;20124;-38
2022/05/10 09:42:01;;;;;;;8.57;3.80;;;21.40;99.90;;;;;;4938413;28;20089;-38
2022/05/10 09:44:28;;;;;;;8.10;3.60;;;21.50;99.90;;;;;;4940416;28;20125;-39
2022/05/10 09:47:14;;;;;;;7.20;3.25;;;21.60;99.90;;;;;;4921551;28;20081;-38
2022/05/10 09:49:40;;;;;;;9.35;3.65;;;21.70;99.90;;;;;;4936882;28;20063;-38
2022/05/10 09:52:17;;;;;;;9.38;4.25;;;21.80;99.90;;;;;;4936659;28;20063;-38
2022/05/10 09:54:43;;;;;;;12.07;4.93;;;21.80;99.90;;;;;;4939504;28;20130;-38
2022/05/10 09:57:30;;;;;;;14.10;4.25;;;21.80;99.90;;;;;;4922087;28;20526;-38
2022/05/10 09:59:56;;;;;;;11.32;4.63;;;21.80;99.90;;;;;;4943431;28;20038;-39
2022/05/10 10:02:40;;;;;;;9.00;4.60;;;21.80;99.90;;;;;;4943455;28;20061;-39
2022/05/10 10:05:30;;;;;;;8.63;4.15;;;21.80;99.90;;;;;;4945415;28;20080;-38
2022/05/10 10:07:57;;;;;;;8.53;4.23;;;21.80;99.90;;;;;;4925571;28;20490;-38
2022/05/10 10:10:28;;;;;;;7.93;4.03;;;21.90;99.90;;;;;;4942246;28;20903;-39
2022/05/10 10:12:54;;;;;;;11.90;4.80;;;21.90;99.90;;;;;;4939047;28;20100;-38
2022/05/10 10:15:23;;;;;;;7.53;4.75;;;21.70;99.90;;;;;;4942130;28;20055;-39
2022/05/10 10:17:58;;;;;;;8.35;4.07;;;21.90;99.90;;;;;;4928098;28;20054;-38
2022/05/10 10:20:47;;;;;;;9.38;5.05;;;21.90;99.90;;;;;;4943470;28;20050;-39
2022/05/10 10:23:21;;;;;;;7.88;4.55;;;22.00;99.90;;;;;;4940282;28;21095;-39
2022/05/10 10:25:48;;;;;;;11.60;4.93;;;22.10;99.90;;;;;;4942492;28;20046;-39
2022/05/10 10:28:20;;;;;;;13.75;5.50;;;22.10;99.90;;;;;;4923099;28;20051;-39
2022/05/10 10:31:01;;;;;;;8.25;5.32;;;22.10;99.90;;;;;;4939685;28;20047;-39
2022/05/10 10:33:44;;;;;;;13.20;5.30;;;22.20;99.90;;;;;;4938669;28;20765;-39
2022/05/10 10:36:24;;;;;;;9.23;5.20;;;22.20;99.90;;;;;;4932789;28;21042;-39
2022/05/10 10:38:56;;;;;;;13.63;5.20;;;22.20;99.90;;;;;;4939872;28;20047;-39
2022/05/10 10:41:49;;;;;;;10.30;5.28;;;22.20;99.90;;;;;;4937229;28;20070;-39
2022/05/10 10:44:20;;;;;;;10.70;5.40;;;22.20;99.90;;;;;;4939397;28;20135;-38
2022/05/10 10:47:10;;;;;;;9.88;5.22;;;22.20;99.90;;;;;;4926613;28;20054;-39
2022/05/10 10:49:52;;;;;;;9.63;5.28;;;22.20;99.90;;;;;;4940782;28;20070;-38
2022/05/10 10:52:18;;;;;;;8.40;4.30;;;22.10;99.90;;;;;;4937668;28;20055;-38
2022/05/10 10:54:46;;;;;;;11.10;4.60;;;22.10;99.90;;;;;;4942630;28;21500;-39
2022/05/10 10:57:45;;;;;;;5.93;4.20;;;22.10;99.90;;;;;;4927271;28;20046;-39
2022/05/10 11:00:11;;;;;;;9.70;3.45;;;22.10;99.90;;;;;;4942763;28;20398;-38
2022/05/10 11:02:58;;;;;;;16.35;3.70;;;22.00;99.90;;;;;;4942495;28;20046;-38
2022/05/10 11:05:43;;;;;;;12.40;3.70;;;21.90;99.90;;;;;;4956888;28;20051;-39
2022/05/10 11:08:34;;;;;;;7.50;3.42;;;21.90;99.90;;;;;;4926733;28;20043;-38
2022/05/10 11:11:34;;;;;;;5.65;3.30;;;21.90;99.90;;;;;;4943940;28;20529;-38
2022/05/10 11:14:22;;;;;;;10.57;3.47;;;21.80;99.90;;;;;;4937686;28;20610;-39
2022/05/10 11:17:02;;;;;;;6.85;3.60;;;21.80;99.90;;;;;;4928503;28;20047;-38
2022/05/10 11:19:53;;;;;;;10.18;3.92;;;21.70;99.90;;;;;;4942244;28;20620;-38
2022/05/10 11:22:35;;;;;;;11.23;4.20;;;21.70;99.90;;;;;;4939294;28;20489;-38
2022/05/10 11:25:13;;;;;;;10.45;5.05;;;21.70;99.90;;;;;;4940152;28;20273;-38
2022/05/10 11:28:04;;;;;;;9.90;5.43;;;21.70;99.90;;;;;;4922907;28;20824;-39
2022/05/10 11:30:56;;;;;;;10.98;5.22;;;21.70;99.90;;;;;;4939904;28;20050;-38
2022/05/10 11:33:44;;;;;;;9.82;5.30;;;21.70;99.90;;;;;;4936658;28;20043;-39
2022/05/10 11:36:39;;;;;;;14.77;6.30;;;21.70;99.90;;;;;;4935169;28;20055;-39
2022/05/10 11:39:19;;;;;;;10.85;5.45;;;21.70;99.90;;;;;;4940677;28;20349;-39
2022/05/10 11:42:18;;;;;;;10.60;6.32;;;21.70;99.90;;;;;;4939644;28;20051;-39
2022/05/10 11:44:50;;;;;;;12.63;6.28;;;21.70;99.90;;;;;;4940683;28;20043;-38
2022/05/10 11:47:36;;;;;;;12.20;6.20;;;21.80;99.90;;;;;;4923059;28;20050;-39
2022/05/10 11:50:27;;;;;;;16.52;7.68;;;21.90;99.90;;;;;;4943221;28;20058;-39
2022/05/10 11:53:19;;;;;;;12.52;7.55;;;21.90;99.90;;;;;;4943637;28;20055;-39
2022/05/10 11:56:01;;;;;;;13.18;7.03;;;22.00;99.90;;;;;;4945822;28;20146;-39
2022/05/10 11:58:30;;;;;;;13.07;7.13;;;22.10;99.90;;;;;;4925670;28;20039;-38
2022/05/10 12:01:01;;;;;;;16.17;8.68;;;22.20;99.90;;;;;;4945676;28;20065;-39
2022/05/10 12:03:39;;;;;;;;;;;22.30;99.90;;;;;;4946709;28;20089;-38
2022/05/10 12:06:22;;;;;;;12.73;6.43;;;22.30;99.90;;;;;;4947962;28;20007;-38
2022/05/10 12:08:50;;;;;;;16.13;5.30;;;22.30;99.90;;;;;;4935901;28;20297;-38
2022/05/10 12:11:27;;;;;;;14.55;4.85;;;22.30;99.90;;;;;;4924690;28;20051;-39
2022/05/10 12:22:13;;;;;;;18.58;4.22;;;22.30;99.90;;;;;;4939284;28;20062;-39
2022/05/10 12:24:45;;;;;;;8.40;4.03;;;22.30;99.90;;;;;;4940273;28;20619;-38
2022/05/10 12:27:10;;;;;;;10.63;3.55;;;22.50;99.90;;;;;;4924069;28;20417;-38
2022/05/10 12:29:39;;;;;;;10.70;3.95;;;22.40;99.90;;;;;;4939339;28;20491;-39
2022/05/10 12:32:10;;;;;;;16.23;5.10;;;22.40;99.90;;;;;;4940054;28;20661;-38
2022/05/10 12:34:48;;;;;;;13.50;3.63;;;22.40;99.90;;;;;;4937549;28;20045;-38
2022/05/10 12:37:24;;;;;;;7.00;2.88;;;22.40;99.90;;;;;;4926420;28;20051;-39
2022/05/10 12:40:00;;;;;;;8.05;2.60;;;22.40;99.90;;;;;;4936660;28;20048;-39
2022/05/10 12:42:54;;;;;;;5.43;2.20;;;22.30;99.90;;;;;;4936967;28;20456;-38
2022/05/10 12:45:44;;;;;;;7.80;2.05;;;22.20;99.90;;;;;;4940620;28;20055;-38
2022/05/10 12:48:44;;;;;;;8.17;1.80;;;22.10;99.90;;;;;;4923410;28;20050;-39
2022/05/10 12:51:38;;;;;;;9.02;2.38;;;22.10;99.70;;;;;;4941502;28;20062;-38
2022/05/10 12:54:09;;;;;;;8.98;2.45;;;22.00;99.90;;;;;;4941968;28;20085;-39
2022/05/10 12:56:46;;;;;;;8.27;2.28;;;22.00;99.90;;;;;;4929951;28;20054;-39
2022/05/10 12:59:11;;;;;;;8.52;2.65;;;21.90;99.90;;;;;;4938230;28;20059;-38
2022/05/10 13:01:38;;;;;;;7.05;2.55;;;21.90;99.90;;;;;;4941715;28;20970;-38
2022/05/10 13:04:20;;;;;;;13.05;2.42;;;21.90;99.90;;;;;;4941373;28;20494;-38
2022/05/10 13:07:12;;;;;;;11.63;2.40;;;21.90;99.90;;;;;;4927187;28;20128;-38
2022/05/10 13:09:40;;;;;;;6.30;1.65;;;21.80;99.90;;;;;;4940044;28;20145;-38
2022/05/10 13:12:18;;;;;;;4.28;1.33;;;21.70;99.90;;;;;;4939891;28;20215;-38
2022/05/10 13:14:47;;;;;;;4.30;1.05;;;21.70;98.90;;;;;;4938283;28;20031;-38
2022/05/10 13:17:23;;;;;;;7.00;1.20;;;21.60;96.80;;;;;;4923102;28;20046;-38
2022/05/10 13:19:50;;;;;;;5.75;0.93;;;21.60;96.10;;;;;;4935366;28;20051;-38
2022/05/10 13:22:18;;;;;;;3.13;0.70;;;21.50;93.50;;;;;;4935684;28;20070;-39
2022/05/10 13:24:46;;;;;;;6.00;0.73;;;21.40;90.80;;;;;;4941872;28;20291;-38
2022/05/10 13:27:27;;;;;;;7.07;0.70;;;21.30;85.70;;;;;;4921855;28;20119;-38
2022/05/10 13:29:55;;;;;;;7.65;0.80;;;21.20;83.90;;;;;;4936679;28;20055;-38
2022/05/10 13:32:42;;;;;;;12.27;0.80;;;21.10;83.80;;;;;;4935468;28;20389;-38